createdAt,value
2018-04-23T00:00:08.721Z,90.19
2018-04-23T00:01:08.877Z,89.72
2018-04-23T00:02:09.035Z,89.62
2018-04-23T00:03:09.189Z,89.62
2018-04-23T00:04:09.345Z,89.52
2018-04-23T00:05:09.499Z,89.33
2018-04-23T00:06:09.655Z,89.33
2018-04-23T00:07:09.809Z,90.00
2018-04-23T00:08:09.965Z,89.52
2018-04-23T00:09:10.119Z,90.05
2018-04-23T00:10:10.277Z,90.15
2018-04-23T00:11:10.425Z,90.48
2018-04-23T00:12:10.596Z,89.90
2018-04-23T00:13:10.746Z,90.19
2018-04-23T00:14:10.899Z,89.48
2018-04-23T00:15:11.054Z,89.62
2018-04-23T00:16:11.210Z,89.23
2018-04-23T00:17:11.367Z,88.47
2018-04-23T00:18:11.520Z,88.95
2018-04-23T00:19:11.672Z,88.76
2018-04-23T00:20:11.830Z,88.28
2018-04-23T00:21:11.988Z,88.47
2018-04-23T00:22:12.138Z,88.66
2018-04-23T00:23:12.294Z,88.95
2018-04-23T00:24:12.451Z,88.56
2018-04-23T00:25:12.607Z,88.95
2018-04-23T00:26:12.757Z,88.09
2018-04-23T00:27:12.913Z,89.04
2018-04-23T00:28:13.069Z,88.76
2018-04-23T00:29:13.224Z,89.62
2018-04-23T00:30:13.380Z,89.52
2018-04-23T00:31:13.535Z,90.00
2018-04-23T00:32:13.694Z,90.39
2018-04-23T00:33:13.848Z,90.29
2018-04-23T00:34:14.002Z,89.72
2018-04-23T00:35:14.162Z,89.95
2018-04-23T00:36:14.313Z,90.48
2018-04-23T00:37:14.468Z,90.53
2018-04-23T00:38:14.622Z,90.05
2018-04-23T00:39:14.775Z,90.82
2018-04-23T00:40:14.929Z,91.11
2018-04-23T00:41:15.085Z,91.39
2018-04-23T00:42:15.237Z,91.44
2018-04-23T00:43:15.392Z,91.92
2018-04-23T00:44:15.548Z,92.40
2018-04-23T00:45:15.700Z,92.40
2018-04-23T00:46:15.854Z,92.11
2018-04-23T00:47:16.009Z,92.21
2018-04-23T00:48:16.171Z,92.21
2018-04-23T00:49:16.322Z,92.30
2018-04-23T00:50:16.479Z,92.40
2018-04-23T00:51:16.642Z,92.44
2018-04-23T00:52:16.791Z,91.92
2018-04-23T00:53:16.948Z,91.92
2018-04-23T00:54:17.104Z,92.11
2018-04-23T00:55:17.260Z,91.63
2018-04-23T00:56:17.413Z,91.83
2018-04-23T00:57:17.568Z,91.68
2018-04-23T00:58:17.724Z,91.77
2018-04-23T00:59:17.878Z,91.11
2018-04-23T01:00:18.034Z,90.82
2018-04-23T01:01:18.186Z,91.63
2018-04-23T01:02:18.342Z,92.02
2018-04-23T01:03:18.498Z,92.88
2018-04-23T01:04:18.652Z,93.26
2018-04-23T01:05:18.808Z,93.26
2018-04-23T01:06:18.961Z,93.64
2018-04-23T01:07:19.115Z,93.55
2018-04-23T01:08:19.267Z,93.26
2018-04-23T01:09:19.421Z,93.26
2018-04-23T01:10:19.576Z,93.64
2018-04-23T01:11:19.732Z,92.69
2018-04-23T01:12:19.887Z,93.74
2018-04-23T01:13:20.044Z,93.16
2018-04-23T01:14:20.199Z,93.16
2018-04-23T01:15:20.348Z,92.88
2018-04-23T01:16:20.503Z,92.40
2018-04-23T01:17:20.657Z,92.30
2018-04-23T01:18:20.815Z,92.40
2018-04-23T01:19:20.965Z,92.30
2018-04-23T01:20:21.122Z,93.16
2018-04-23T01:21:21.274Z,93.35
2018-04-23T01:22:21.429Z,93.16
2018-04-23T01:23:21.585Z,93.74
2018-04-23T01:24:21.739Z,94.31
2018-04-23T01:25:21.895Z,94.02
2018-04-23T01:26:22.048Z,93.64
2018-04-23T01:27:22.205Z,93.84
2018-04-23T01:28:22.357Z,93.84
2018-04-23T01:29:22.513Z,94.70
2018-04-23T01:30:22.669Z,93.69
2018-04-23T01:31:22.823Z,94.26
2018-04-23T01:32:22.978Z,94.55
2018-04-23T01:33:23.137Z,94.41
2018-04-23T01:34:23.288Z,94.46
2018-04-23T01:35:23.440Z,94.60
2018-04-23T01:36:23.594Z,94.46
2018-04-23T01:37:23.754Z,94.65
2018-04-23T01:38:23.905Z,95.17
2018-04-23T01:39:24.061Z,94.55
2018-04-23T01:40:24.214Z,94.98
2018-04-23T01:41:24.373Z,94.31
2018-04-23T01:42:24.525Z,94.12
2018-04-23T01:43:24.683Z,94.60
2018-04-23T01:44:24.834Z,94.89
2018-04-23T01:45:24.992Z,94.31
2018-04-23T01:46:25.144Z,94.50
2018-04-23T01:47:25.300Z,94.31
2018-04-23T01:48:25.454Z,94.70
2018-04-23T01:49:25.611Z,94.50
2018-04-23T01:50:25.761Z,94.12
2018-04-23T01:51:25.921Z,94.50
2018-04-23T01:52:26.073Z,94.21
2018-04-23T01:53:26.227Z,93.64
2018-04-23T01:54:26.381Z,93.16
2018-04-23T01:55:26.535Z,92.97
2018-04-23T01:56:26.690Z,93.16
2018-04-23T01:57:26.842Z,93.74
2018-04-23T01:58:27.004Z,94.70
2018-04-23T01:59:27.176Z,94.21
2018-04-23T02:00:27.307Z,93.45
2018-04-23T02:01:27.462Z,93.64
2018-04-23T02:02:27.620Z,93.55
2018-04-23T02:03:27.773Z,93.55
2018-04-23T02:04:27.925Z,93.64
2018-04-23T02:05:28.083Z,93.93
2018-04-23T02:06:28.235Z,93.93
2018-04-23T02:07:28.392Z,94.12
2018-04-23T02:08:28.548Z,93.84
2018-04-23T02:09:28.708Z,94.31
2018-04-23T02:10:28.862Z,94.31
2018-04-23T02:11:29.019Z,94.70
2018-04-23T02:12:29.173Z,94.46
2018-04-23T02:13:29.328Z,95.70
2018-04-23T02:14:29.481Z,94.70
2018-04-23T02:15:29.637Z,94.36
2018-04-23T02:16:29.795Z,94.65
2018-04-23T02:17:29.950Z,94.74
2018-04-23T02:18:30.101Z,95.32
2018-04-23T02:19:30.258Z,95.51
2018-04-23T02:20:30.416Z,95.70
2018-04-23T02:21:30.569Z,95.41
2018-04-23T02:22:30.721Z,95.41
2018-04-23T02:23:30.879Z,95.51
2018-04-23T02:24:31.033Z,95.79
2018-04-23T02:25:31.186Z,95.12
2018-04-23T02:26:31.344Z,94.65
2018-04-23T02:27:31.498Z,94.46
2018-04-23T02:28:31.655Z,94.36
2018-04-23T02:29:31.808Z,94.17
2018-04-23T02:30:31.962Z,93.79
2018-04-23T02:31:32.119Z,93.64
2018-04-23T02:32:32.271Z,93.45
2018-04-23T02:33:32.427Z,93.35
2018-04-23T02:34:32.580Z,93.45
2018-04-23T02:35:32.733Z,93.45
2018-04-23T02:36:32.886Z,93.16
2018-04-23T02:37:33.041Z,93.50
2018-04-23T02:38:33.194Z,94.93
2018-04-23T02:39:33.350Z,95.41
2018-04-23T02:40:33.510Z,95.98
2018-04-23T02:41:33.669Z,96.37
2018-04-23T02:42:33.817Z,95.89
2018-04-23T02:43:33.974Z,96.37
2018-04-23T02:44:34.123Z,95.61
2018-04-23T02:45:34.277Z,95.41
2018-04-23T02:46:34.429Z,95.32
2018-04-23T02:47:34.587Z,95.70
2018-04-23T02:48:34.738Z,94.74
2018-04-23T02:49:34.893Z,95.22
2018-04-23T02:50:35.050Z,95.41
2018-04-23T02:51:35.202Z,94.65
2018-04-23T02:52:35.360Z,94.36
2018-04-23T02:53:35.514Z,94.36
2018-04-23T02:54:35.670Z,94.02
2018-04-23T02:55:35.826Z,93.74
2018-04-23T02:56:35.982Z,93.35
2018-04-23T02:57:36.135Z,93.26
2018-04-23T02:58:36.291Z,92.88
2018-04-23T02:59:36.443Z,93.55
2018-04-23T03:00:36.610Z,93.64
2018-04-23T03:01:36.750Z,93.64
2018-04-23T03:02:36.940Z,94.12
2018-04-23T03:03:37.062Z,94.60
2018-04-23T03:04:37.215Z,94.31
2018-04-23T03:05:37.378Z,93.74
2018-04-23T03:06:37.526Z,93.64
2018-04-23T03:07:37.683Z,93.07
2018-04-23T03:08:37.833Z,93.16
2018-04-23T03:09:37.989Z,93.26
2018-04-23T03:10:38.144Z,94.02
2018-04-23T03:11:38.300Z,93.64
2018-04-23T03:12:38.452Z,93.93
2018-04-23T03:13:38.612Z,92.74
2018-04-23T03:14:38.765Z,93.07
2018-04-23T03:15:38.915Z,92.78
2018-04-23T03:16:39.069Z,92.78
2018-04-23T03:17:39.223Z,93.07
2018-04-23T03:18:39.379Z,93.21
2018-04-23T03:19:39.533Z,93.16
2018-04-23T03:20:39.688Z,92.78
2018-04-23T03:21:39.846Z,92.59
2018-04-23T03:22:39.996Z,92.69
2018-04-23T03:23:40.153Z,92.97
2018-04-23T03:24:40.315Z,92.74
2018-04-23T03:25:40.465Z,92.97
2018-04-23T03:26:40.620Z,92.59
2018-04-23T03:27:40.775Z,92.78
2018-04-23T03:28:40.928Z,92.69
2018-04-23T03:29:41.080Z,92.78
2018-04-23T03:30:41.235Z,92.40
2018-04-23T03:31:41.390Z,92.69
2018-04-23T03:32:41.543Z,92.40
2018-04-23T03:33:41.706Z,92.49
2018-04-23T03:34:41.851Z,93.12
2018-04-23T03:35:42.007Z,93.21
2018-04-23T03:36:42.159Z,93.16
2018-04-23T03:37:42.315Z,93.07
2018-04-23T03:38:42.471Z,92.69
2018-04-23T03:39:42.624Z,92.40
2018-04-23T03:40:42.780Z,92.78
2018-04-23T03:41:42.934Z,93.35
2018-04-23T03:42:43.089Z,94.17
2018-04-23T03:43:43.247Z,94.46
2018-04-23T03:44:43.406Z,94.31
2018-04-23T03:45:43.558Z,94.46
2018-04-23T03:46:43.713Z,94.31
2018-04-23T03:47:43.869Z,94.31
2018-04-23T03:48:44.022Z,94.65
2018-04-23T03:49:44.177Z,95.32
2018-04-23T03:50:44.331Z,95.03
2018-04-23T03:51:44.487Z,94.70
2018-04-23T03:52:44.641Z,95.07
2018-04-23T03:53:44.800Z,94.79
2018-04-23T03:54:44.955Z,94.60
2018-04-23T03:55:45.108Z,94.31
2018-04-23T03:56:45.264Z,94.79
2018-04-23T03:57:45.462Z,94.50
2018-04-23T03:58:45.570Z,94.89
2018-04-23T03:59:45.723Z,94.41
2018-04-23T04:00:45.876Z,94.50
2018-04-23T04:01:46.037Z,94.70
2018-04-23T04:02:46.187Z,95.17
2018-04-23T04:03:46.343Z,94.89
2018-04-23T04:04:46.498Z,94.70
2018-04-23T04:05:46.658Z,95.36
2018-04-23T04:06:46.809Z,95.46
2018-04-23T04:07:46.972Z,96.61
2018-04-23T04:08:47.117Z,96.66
2018-04-23T04:09:47.271Z,96.75
2018-04-23T04:10:47.428Z,96.94
2018-04-23T04:11:47.581Z,96.51
2018-04-23T04:12:47.736Z,96.51
2018-04-23T04:13:47.890Z,96.13
2018-04-23T04:14:48.046Z,95.46
2018-04-23T04:15:48.195Z,95.56
2018-04-23T04:16:48.353Z,95.65
2018-04-23T04:17:48.505Z,94.79
2018-04-23T04:18:48.660Z,94.70
2018-04-23T04:19:48.819Z,94.93
2018-04-23T04:20:48.975Z,94.65
2018-04-23T04:21:49.130Z,94.17
2018-04-23T04:22:49.283Z,94.45
2018-04-23T04:23:49.437Z,95.03
2018-04-23T04:24:49.591Z,95.17
2018-04-23T04:25:49.749Z,95.31
2018-04-23T04:26:49.899Z,95.89
2018-04-23T04:27:50.053Z,95.75
2018-04-23T04:28:50.209Z,94.65
2018-04-23T04:29:50.362Z,94.50
2018-04-23T04:30:50.516Z,94.45
2018-04-23T04:31:50.672Z,94.60
2018-04-23T04:32:50.827Z,94.41
2018-04-23T04:33:50.984Z,94.50
2018-04-23T04:34:51.136Z,94.89
2018-04-23T04:35:52.020Z,95.46
2018-04-23T04:36:51.795Z,94.98
2018-04-23T04:37:51.734Z,95.56
2018-04-23T04:38:51.796Z,94.79
2018-04-23T04:39:51.947Z,94.89
2018-04-23T04:40:52.102Z,94.98
2018-04-23T04:41:52.256Z,95.17
2018-04-23T04:42:52.413Z,95.75
2018-04-23T04:43:52.605Z,95.46
2018-04-23T04:44:52.724Z,95.75
2018-04-23T04:45:52.881Z,95.17
2018-04-23T04:46:53.029Z,95.07
2018-04-23T04:47:53.190Z,95.17
2018-04-23T04:48:53.347Z,95.46
2018-04-23T04:49:53.513Z,95.17
2018-04-23T04:50:53.653Z,95.56
2018-04-23T04:51:53.829Z,96.22
2018-04-23T04:52:53.961Z,96.80
2018-04-23T04:53:54.110Z,96.61
2018-04-23T04:54:54.265Z,96.80
2018-04-23T04:55:54.421Z,96.70
2018-04-23T04:56:54.579Z,96.80
2018-04-23T04:57:54.730Z,95.84
2018-04-23T04:58:54.885Z,95.94
2018-04-23T04:59:55.044Z,95.65
2018-04-23T05:00:55.197Z,96.42
2018-04-23T05:01:55.352Z,95.46
2018-04-23T05:02:55.506Z,95.17
2018-04-23T05:03:55.663Z,95.94
2018-04-23T05:04:55.818Z,96.70
2018-04-23T05:05:55.977Z,96.80
2018-04-23T05:06:56.129Z,95.84
2018-04-23T05:07:56.284Z,96.13
2018-04-23T05:08:56.439Z,95.75
2018-04-23T05:09:56.598Z,95.70
2018-04-23T05:10:56.755Z,95.31
2018-04-23T05:11:56.906Z,94.84
2018-04-23T05:12:57.065Z,94.93
2018-04-23T05:13:57.218Z,94.93
2018-04-23T05:14:57.375Z,95.51
2018-04-23T05:15:57.529Z,95.79
2018-04-23T05:16:57.687Z,95.56
2018-04-23T05:17:57.842Z,95.51
2018-04-23T05:18:57.994Z,95.70
2018-04-23T05:19:58.150Z,95.03
2018-04-23T05:20:58.308Z,94.84
2018-04-23T05:21:58.459Z,95.61
2018-04-23T05:22:58.617Z,95.51
2018-04-23T05:23:58.771Z,95.31
2018-04-23T05:24:58.929Z,95.22
2018-04-23T05:25:59.083Z,95.70
2018-04-23T05:26:59.239Z,94.84
2018-04-23T05:27:59.397Z,94.93
2018-04-23T05:28:59.551Z,94.55
2018-04-23T05:29:59.758Z,94.74
2018-04-23T05:30:59.862Z,95.31
2018-04-23T05:32:00.020Z,95.41
2018-04-23T05:33:00.173Z,95.51
2018-04-23T05:34:00.328Z,95.31
2018-04-23T05:35:00.485Z,95.51
2018-04-23T05:36:00.638Z,95.61
2018-04-23T05:37:00.796Z,96.27
2018-04-23T05:38:00.966Z,95.51
2018-04-23T05:39:01.110Z,95.70
2018-04-23T05:40:01.271Z,95.46
2018-04-23T05:41:01.417Z,95.70
2018-04-23T05:42:01.569Z,94.89
2018-04-23T05:43:01.725Z,95.51
2018-04-23T05:44:01.936Z,95.22
2018-04-23T05:45:02.042Z,95.31
2018-04-23T05:46:02.202Z,95.22
2018-04-23T05:47:02.356Z,95.61
2018-04-23T05:48:02.511Z,95.51
2018-04-23T05:49:02.668Z,95.70
2018-04-23T05:50:02.828Z,95.79
2018-04-23T05:51:02.979Z,95.22
2018-04-23T05:52:03.136Z,94.69
2018-04-23T05:53:03.288Z,94.07
2018-04-23T05:54:03.445Z,94.21
2018-04-23T05:55:03.614Z,94.02
2018-04-23T05:56:03.757Z,94.12
2018-04-23T05:57:03.914Z,94.31
2018-04-23T05:58:04.066Z,93.83
2018-04-23T05:59:04.225Z,94.02
2018-04-23T06:00:04.385Z,94.79
2018-04-23T06:01:04.536Z,94.60
2018-04-23T06:02:04.694Z,94.31
2018-04-23T06:03:04.892Z,94.12
2018-04-23T06:04:05.006Z,94.31
2018-04-23T06:05:05.160Z,93.74
2018-04-23T06:06:05.315Z,93.54
2018-04-23T06:07:05.471Z,93.93
2018-04-23T06:08:05.626Z,93.83
2018-04-23T06:09:05.782Z,93.83
2018-04-23T06:10:05.937Z,93.21
2018-04-23T06:11:06.094Z,93.59
2018-04-23T06:12:06.249Z,93.49
2018-04-23T06:13:06.403Z,94.60
2018-04-23T06:14:06.561Z,94.40
2018-04-23T06:15:06.715Z,94.69
2018-04-23T06:16:06.871Z,95.46
2018-04-23T06:17:07.027Z,95.75
2018-04-23T06:18:07.184Z,95.56
2018-04-23T06:19:07.337Z,95.65
2018-04-23T06:20:07.494Z,95.41
2018-04-23T06:21:07.651Z,96.13
2018-04-23T06:22:07.805Z,95.56
2018-04-23T06:23:07.959Z,94.89
2018-04-23T06:24:08.114Z,94.98
2018-04-23T06:25:08.274Z,94.60
2018-04-23T06:26:08.423Z,94.12
2018-04-23T06:27:08.596Z,94.31
2018-04-23T06:28:08.790Z,95.07
2018-04-23T06:29:08.884Z,94.69
2018-04-23T06:30:09.040Z,94.31
2018-04-23T06:31:09.195Z,94.60
2018-04-23T06:32:09.349Z,94.31
2018-04-23T06:33:09.512Z,93.74
2018-04-23T06:34:09.661Z,94.26
2018-04-23T06:35:09.818Z,93.74
2018-04-23T06:36:09.972Z,94.60
2018-04-23T06:37:10.130Z,94.69
2018-04-23T06:38:10.284Z,94.89
2018-04-23T06:39:10.439Z,95.07
2018-04-23T06:40:10.595Z,94.40
2018-04-23T06:41:10.751Z,94.26
2018-04-23T06:42:10.907Z,94.45
2018-04-23T06:43:11.067Z,94.64
2018-04-23T06:44:11.216Z,94.07
2018-04-23T06:45:11.372Z,94.74
2018-04-23T06:46:11.571Z,94.02
2018-04-23T06:47:11.680Z,94.07
2018-04-23T06:48:11.836Z,93.74
2018-04-23T06:49:11.994Z,93.69
2018-04-23T06:50:12.149Z,93.30
2018-04-23T06:51:12.307Z,92.92
2018-04-23T06:52:12.458Z,92.54
2018-04-23T06:53:12.614Z,92.44
2018-04-23T06:54:12.771Z,91.91
2018-04-23T06:55:12.927Z,92.10
2018-04-23T06:56:13.084Z,92.20
2018-04-23T06:57:13.241Z,92.77
2018-04-23T06:58:13.404Z,92.58
2018-04-23T06:59:13.552Z,91.96
2018-04-23T07:00:13.709Z,91.77
2018-04-23T07:01:13.864Z,91.38
2018-04-23T07:02:14.019Z,91.19
2018-04-23T07:03:14.176Z,91.38
2018-04-23T07:04:14.335Z,90.47
2018-04-23T07:05:14.491Z,89.79
2018-04-23T07:06:14.646Z,88.84
2018-04-23T07:07:14.805Z,88.26
2018-04-23T07:08:14.960Z,87.78
2018-04-23T07:09:15.116Z,87.68
2018-04-23T07:10:15.274Z,87.78
2018-04-23T07:11:15.433Z,86.58
2018-04-23T07:12:15.588Z,84.95
2018-04-23T07:13:15.745Z,86.34
2018-04-23T07:14:15.903Z,84.18
2018-04-23T07:15:16.058Z,87.11
2018-04-23T07:16:16.218Z,87.21
2018-04-23T07:17:16.371Z,88.26
2018-04-23T07:18:16.529Z,88.84
2018-04-23T07:19:16.690Z,89.22
2018-04-23T07:20:16.841Z,87.78
2018-04-23T07:21:16.998Z,87.40
2018-04-23T07:22:17.157Z,87.59
2018-04-23T07:23:17.315Z,87.98
2018-04-23T07:24:17.471Z,87.40
2018-04-23T07:25:17.627Z,88.74
2018-04-23T07:26:17.786Z,88.31
2018-04-23T07:27:17.943Z,87.11
2018-04-23T07:28:18.102Z,87.49
2018-04-23T07:29:18.299Z,88.69
2018-04-23T07:30:18.434Z,86.87
2018-04-23T07:31:18.573Z,86.38
2018-04-23T07:32:18.727Z,85.42
2018-04-23T07:33:18.885Z,86.68
2018-04-23T07:34:19.044Z,86.19
2018-04-23T07:35:19.202Z,85.47
2018-04-23T07:36:19.357Z,82.40
2018-04-23T07:37:19.516Z,82.92
2018-04-23T07:38:19.678Z,83.49
2018-04-23T07:39:19.835Z,82.92
2018-04-23T07:40:19.992Z,79.75
2018-04-23T07:41:20.150Z,78.40
2018-04-23T07:42:20.309Z,77.48
2018-04-23T07:43:20.468Z,76.71
2018-04-23T07:44:20.631Z,75.84
2018-04-23T07:45:20.790Z,76.14
2018-04-23T07:46:20.946Z,75.56
2018-04-23T07:47:21.106Z,75.27
2018-04-23T07:48:21.266Z,75.56
2018-04-23T07:49:21.419Z,75.07
2018-04-23T07:50:21.576Z,75.37
2018-04-23T07:51:21.736Z,75.27
2018-04-23T07:52:21.891Z,75.27
2018-04-23T07:53:22.051Z,74.60
2018-04-23T07:54:22.206Z,73.83
2018-04-23T07:55:22.365Z,73.73
2018-04-23T07:56:22.523Z,73.63
2018-04-23T07:57:22.681Z,74.02
2018-04-23T07:58:22.839Z,73.92
2018-04-23T07:59:23.014Z,73.63
2018-04-23T08:00:23.163Z,74.30
2018-04-23T08:01:23.322Z,73.09
2018-04-23T08:02:23.480Z,73.19
2018-04-23T08:03:23.638Z,72.71
2018-04-23T08:04:23.796Z,73.86
2018-04-23T08:05:23.953Z,73.00
2018-04-23T08:06:24.113Z,72.32
2018-04-23T08:07:24.271Z,71.55
2018-04-23T08:08:24.433Z,72.61
2018-04-23T08:09:24.586Z,73.96
2018-04-23T08:10:24.743Z,72.90
2018-04-23T08:11:24.904Z,71.75
2018-04-23T08:12:25.061Z,71.75
2018-04-23T08:13:25.216Z,71.11
2018-04-23T08:14:25.372Z,71.97
2018-04-23T08:15:25.531Z,70.98
2018-04-23T08:16:25.691Z,70.15
2018-04-23T08:17:25.847Z,70.40
2018-04-23T08:18:26.006Z,70.30
2018-04-23T08:19:26.160Z,68.96
2018-04-23T08:20:26.325Z,70.11
2018-04-23T08:21:26.485Z,70.98
2018-04-23T08:22:26.641Z,69.79
2018-04-23T08:23:26.798Z,70.27
2018-04-23T08:24:26.957Z,71.14
2018-04-23T08:25:27.126Z,70.65
2018-04-23T08:26:27.275Z,69.24
2018-04-23T08:27:27.433Z,69.12
2018-04-23T08:28:27.591Z,69.92
2018-04-23T08:29:27.749Z,70.40
2018-04-23T08:30:27.910Z,70.11
2018-04-23T08:31:28.067Z,69.92
2018-04-23T08:32:28.226Z,68.06
2018-04-23T08:33:28.383Z,68.86
2018-04-23T08:34:28.545Z,69.34
2018-04-23T08:35:28.701Z,68.19
2018-04-23T08:36:28.858Z,67.42
2018-04-23T08:37:29.028Z,67.51
2018-04-23T08:38:29.179Z,67.03
2018-04-23T08:39:29.336Z,66.55
2018-04-23T08:40:29.500Z,65.88
2018-04-23T08:41:29.657Z,65.33
2018-04-23T08:42:29.815Z,66.30
2018-04-23T08:43:29.970Z,66.97
2018-04-23T08:44:30.129Z,66.68
2018-04-23T08:45:30.288Z,67.45
2018-04-23T08:46:30.440Z,67.07
2018-04-23T08:47:30.597Z,67.77
2018-04-23T08:48:30.757Z,66.81
2018-04-23T08:49:30.917Z,67.00
2018-04-23T08:50:31.120Z,64.89
2018-04-23T08:51:31.229Z,64.79
2018-04-23T08:52:31.387Z,64.37
2018-04-23T08:53:31.545Z,65.24
2018-04-23T08:54:31.707Z,64.95
2018-04-23T08:55:31.861Z,64.08
2018-04-23T08:56:32.018Z,63.89
2018-04-23T08:57:32.175Z,64.28
2018-04-23T08:58:32.336Z,65.05
2018-04-23T08:59:32.493Z,64.18
2018-04-23T09:00:32.654Z,64.79
2018-04-23T09:01:32.823Z,64.18
2018-04-23T09:02:32.970Z,64.40
2018-04-23T09:03:33.126Z,64.21
2018-04-23T09:04:33.284Z,64.69
2018-04-23T09:05:33.445Z,64.50
2018-04-23T09:06:33.603Z,64.50
2018-04-23T09:07:33.763Z,64.66
2018-04-23T09:08:33.916Z,64.18
2018-04-23T09:09:34.075Z,65.24
2018-04-23T09:10:34.234Z,65.33
2018-04-23T09:11:34.393Z,64.76
2018-04-23T09:12:34.552Z,65.05
2018-04-23T09:13:34.709Z,64.76
2018-04-23T09:14:34.870Z,64.69
2018-04-23T09:15:35.030Z,65.27
2018-04-23T09:16:35.190Z,65.66
2018-04-23T09:17:35.349Z,65.24
2018-04-23T09:18:35.510Z,65.14
2018-04-23T09:19:35.668Z,65.24
2018-04-23T09:20:35.824Z,65.43
2018-04-23T09:21:35.985Z,65.24
2018-04-23T09:22:36.144Z,65.63
2018-04-23T09:23:36.319Z,65.63
2018-04-23T09:24:36.460Z,65.63
2018-04-23T09:25:36.627Z,65.46
2018-04-23T09:26:36.785Z,64.21
2018-04-23T09:27:36.944Z,64.12
2018-04-23T09:28:37.102Z,63.73
2018-04-23T09:29:37.264Z,64.59
2018-04-23T09:30:37.420Z,64.40
2018-04-23T09:31:37.655Z,64.21
2018-04-23T09:32:37.739Z,63.82
2018-04-23T09:33:37.898Z,64.40
2018-04-23T09:34:38.057Z,64.02
2018-04-23T09:35:38.213Z,64.08
2018-04-23T09:36:38.375Z,63.60
2018-04-23T09:37:38.532Z,63.89
2018-04-23T09:38:38.690Z,63.92
2018-04-23T09:39:38.849Z,62.51
2018-04-23T09:40:39.007Z,62.99
2018-04-23T09:41:39.171Z,62.70
2018-04-23T09:42:39.324Z,61.96
2018-04-23T09:43:39.487Z,61.77
2018-04-23T09:44:39.652Z,60.80
2018-04-23T09:45:39.801Z,60.71
2018-04-23T09:46:39.964Z,60.83
2018-04-23T09:47:40.121Z,60.83
2018-04-23T09:48:40.285Z,59.58
2018-04-23T09:49:40.437Z,60.06
2018-04-23T09:50:40.594Z,59.52
2018-04-23T09:51:40.755Z,58.81
2018-04-23T09:52:40.911Z,59.30
2018-04-23T09:53:41.076Z,59.80
2018-04-23T09:54:41.230Z,59.68
2018-04-23T09:55:41.388Z,58.81
2018-04-23T09:56:41.548Z,58.91
2018-04-23T09:57:41.711Z,59.71
2018-04-23T09:58:41.887Z,59.30
2018-04-23T09:59:42.024Z,59.78
2018-04-23T10:00:42.184Z,59.94
2018-04-23T10:01:42.343Z,59.17
2018-04-23T10:02:42.500Z,59.68
2018-04-23T10:03:42.663Z,59.10
2018-04-23T10:04:42.820Z,58.91
2018-04-23T10:05:42.981Z,58.65
2018-04-23T10:06:43.141Z,58.65
2018-04-23T10:07:43.300Z,58.94
2018-04-23T10:08:43.460Z,58.17
2018-04-23T10:09:43.621Z,56.84
2018-04-23T10:10:43.783Z,56.91
2018-04-23T10:11:43.941Z,57.29
2018-04-23T10:12:44.099Z,57.04
2018-04-23T10:13:44.260Z,57.52
2018-04-23T10:14:44.418Z,56.84
2018-04-23T10:15:44.575Z,56.94
2018-04-23T10:16:44.738Z,55.88
2018-04-23T10:17:44.895Z,56.00
2018-04-23T10:18:45.058Z,56.77
2018-04-23T10:19:45.219Z,55.62
2018-04-23T10:20:45.376Z,56.10
2018-04-23T10:21:45.536Z,56.87
2018-04-23T10:22:45.701Z,58.83
2018-04-23T10:23:45.856Z,55.90
2018-04-23T10:24:46.018Z,55.62
2018-04-23T10:25:46.178Z,55.30
2018-04-23T10:26:46.338Z,54.72
2018-04-23T10:27:46.499Z,54.62
2018-04-23T10:28:46.656Z,53.66
2018-04-23T10:29:46.819Z,54.87
2018-04-23T10:30:46.982Z,54.22
2018-04-23T10:31:47.137Z,52.55
2018-04-23T10:32:47.299Z,52.09
2018-04-23T10:33:47.461Z,51.51
2018-04-23T10:34:47.622Z,50.84
2018-04-23T10:35:47.783Z,50.84
2018-04-23T10:36:47.947Z,50.76
2018-04-23T10:37:48.104Z,51.39
2018-04-23T10:38:48.265Z,51.78
2018-04-23T10:39:48.424Z,51.95
2018-04-23T10:40:48.588Z,51.97
2018-04-23T10:41:48.748Z,53.01
2018-04-23T10:42:48.907Z,54.10
2018-04-23T10:43:49.072Z,52.94
2018-04-23T10:44:49.229Z,52.94
2018-04-23T10:45:49.389Z,52.67
2018-04-23T10:46:49.552Z,51.97
2018-04-23T10:47:49.725Z,53.13
2018-04-23T10:48:49.875Z,52.53
2018-04-23T10:49:50.037Z,52.94
2018-04-23T10:50:50.200Z,51.97
2018-04-23T10:51:50.363Z,54.29
2018-04-23T10:52:50.523Z,55.07
2018-04-23T10:53:50.685Z,54.75
2018-04-23T10:54:50.848Z,54.49
2018-04-23T10:55:51.012Z,54.00
2018-04-23T10:56:51.169Z,53.61
2018-04-23T10:57:51.332Z,53.13
2018-04-23T10:58:51.497Z,54.07
2018-04-23T10:59:51.660Z,55.42
2018-04-23T11:00:51.814Z,52.81
2018-04-23T11:01:52.023Z,53.27
2018-04-23T11:02:52.134Z,53.85
2018-04-23T11:03:52.297Z,53.56
2018-04-23T11:04:52.458Z,53.85
2018-04-23T11:05:52.619Z,54.53
2018-04-23T11:06:52.778Z,53.66
2018-04-23T11:07:52.941Z,54.72
2018-04-23T11:08:53.100Z,55.59
2018-04-23T11:09:53.260Z,55.98
2018-04-23T11:10:53.425Z,55.85
2018-04-23T11:11:53.585Z,56.04
2018-04-23T11:12:53.746Z,55.36
2018-04-23T11:13:53.908Z,55.27
2018-04-23T11:14:54.070Z,55.44
2018-04-23T11:15:54.746Z,56.01
2018-04-23T11:16:54.401Z,55.92
2018-04-23T11:17:54.563Z,55.82
2018-04-23T11:18:54.723Z,55.73
2018-04-23T11:19:54.883Z,55.82
2018-04-23T11:20:55.047Z,55.92
2018-04-23T11:21:55.213Z,57.07
2018-04-23T11:22:55.362Z,56.11
2018-04-23T11:23:55.521Z,57.62
2018-04-23T11:24:55.694Z,56.85
2018-04-23T11:25:55.832Z,58.01
2018-04-23T11:26:55.982Z,58.59
2018-04-23T11:27:56.138Z,58.69
2018-04-23T11:28:56.292Z,59.07
2018-04-23T11:29:56.439Z,58.20
2018-04-23T11:30:56.594Z,58.30
2018-04-23T11:31:56.749Z,58.11
2018-04-23T11:32:56.904Z,58.01
2018-04-23T11:33:57.064Z,58.88
2018-04-23T11:34:57.219Z,59.17
2018-04-23T11:35:57.376Z,58.65
2018-04-23T11:36:57.544Z,58.75
2018-04-23T11:37:57.691Z,58.95
2018-04-23T11:38:57.859Z,59.23
2018-04-23T11:39:58.067Z,59.55
2018-04-23T11:40:58.177Z,58.91
2018-04-23T11:41:58.320Z,58.07
2018-04-23T11:42:58.476Z,57.52
2018-04-23T11:43:58.627Z,56.36
2018-04-23T11:44:58.797Z,55.90
2018-04-23T11:45:58.934Z,55.33
2018-04-23T11:46:59.085Z,54.29
2018-04-23T11:47:59.258Z,53.71
2018-04-23T11:48:59.482Z,54.97
2018-04-23T11:49:59.583Z,53.74
2018-04-23T11:50:59.744Z,52.58
2018-04-23T11:51:59.891Z,53.55
2018-04-23T11:53:00.042Z,53.06
2018-04-23T11:54:00.200Z,53.03
2018-04-23T11:55:00.343Z,54.71
2018-04-23T11:56:00.507Z,52.77
2018-04-23T11:57:00.650Z,52.09
2018-04-23T11:58:00.809Z,51.32
2018-04-23T11:59:00.958Z,50.76
2018-04-23T12:00:01.121Z,49.12
2018-04-23T12:01:01.280Z,48.90
2018-04-23T12:02:01.429Z,49.27
2018-04-23T12:03:01.591Z,49.65
2018-04-23T12:04:01.744Z,49.65
2018-04-23T12:05:01.909Z,50.35
2018-04-23T12:06:02.071Z,49.12
2018-04-23T12:07:02.226Z,47.94
2018-04-23T12:08:02.389Z,48.30
2018-04-23T12:09:02.547Z,48.03
2018-04-23T12:10:02.716Z,48.16
2018-04-23T12:11:02.872Z,48.21
2018-04-23T12:12:03.034Z,49.19
2018-04-23T12:13:03.196Z,48.32
2018-04-23T12:14:03.358Z,47.94
2018-04-23T12:15:03.521Z,47.84
2018-04-23T12:16:03.703Z,46.88
2018-04-23T12:17:03.854Z,48.32
2018-04-23T12:18:04.020Z,49.39
2018-04-23T12:19:04.185Z,49.12
2018-04-23T12:20:04.346Z,50.28
2018-04-23T12:21:04.507Z,50.31
2018-04-23T12:22:04.669Z,49.41
2018-04-23T12:23:04.831Z,49.19
2018-04-23T12:24:04.991Z,50.69
2018-04-23T12:25:05.152Z,51.65
2018-04-23T12:26:05.324Z,52.23
2018-04-23T12:27:05.469Z,52.59
2018-04-23T12:28:05.629Z,51.63
2018-04-23T12:29:05.794Z,52.40
2018-04-23T12:30:05.949Z,52.40
2018-04-23T12:31:06.116Z,52.53
2018-04-23T12:32:06.276Z,52.17
2018-04-23T12:33:06.439Z,50.45
2018-04-23T12:34:06.603Z,50.84
2018-04-23T12:35:06.775Z,51.90
2018-04-23T12:36:06.937Z,51.32
2018-04-23T12:37:07.098Z,50.57
2018-04-23T12:38:07.259Z,50.18
2018-04-23T12:39:07.422Z,49.41
2018-04-23T12:40:07.588Z,48.54
2018-04-23T12:41:07.744Z,49.32
2018-04-23T12:42:07.905Z,48.06
2018-04-23T12:43:08.069Z,48.54
2018-04-23T12:44:08.231Z,48.06
2018-04-23T12:45:08.397Z,47.67
2018-04-23T12:46:08.588Z,49.80
2018-04-23T12:47:08.721Z,48.16
2018-04-23T12:48:08.884Z,47.86
2018-04-23T12:49:09.048Z,47.77
2018-04-23T12:50:09.210Z,47.94
2018-04-23T12:51:09.372Z,46.97
2018-04-23T12:52:09.538Z,48.32
2018-04-23T12:53:09.697Z,47.58
2018-04-23T12:54:09.860Z,48.08